Cannonsburg, MI (49317)

2:53 PM EST on February 08, 2016 (GMT -0500)
Cannon Twp-Tillicum Farms | | Change Station
CLOSE
Current Station
Personal Weather Station
Location: Rockford, MI
Elevation: 873 ft
Nearby Weather Stations

Elev 873 ft 43.09 °N, 85.47 °W | Updated 6 minutes ago

Mostly Cloudy
Mostly Cloudy
38.6 °F
Feels Like 39 °F
N
0.0
Wind Variable Wind from NW

Today
High -- | Low -- °F
--% Chance of Precip.
Yesterday
High -- | Low -- °F
Precip. -- in
Pressure 29.60 in
Visibility 10.0 miles
Clouds Mostly Cloudy 2800 ft
Mostly Cloudy 23000 ft
Windchill 39 °F
Dew Point 28 °F
Humidity 66%
Rainfall 0.00 in
Snow Depth Not available.
7:49 AM 6:03 PM
New Moon, 0% visible
METAR KGRR 081853Z 26007KT 10SM BKN028 BKN230 04/M02 A2958 RMK AO2 SLP021 T00441022
Pressure 29.60 in
Visibility 10.0 miles
Clouds Mostly Cloudy 2800 ft
Mostly Cloudy 23000 ft
Windchill 39 °F
Dew Point 28 °F
Humidity 66%
Rainfall 0.00 in
Snow Depth Not available.
7:49 AM 6:03 PM
New Moon, 0% visible
METAR KGRR 081853Z 26007KT 10SM BKN028 BKN230 04/M02 A2958 RMK AO2 SLP021 T00441022

10-Day Weather Forecast

Almanac

Astronomy

Feb. 08, 2016 Rise Set
Actual Time
Civil Twilight
Nautical Twilight
Astronomical Twilight
Moon
Length of Visible Light
Length of Day
Tomorrow will be .
, % of the Moon is Illuminated

Today's Extremes

State Highs State Lows

Community

WunderPhotos

Upload Photos

1,891,499 photos uploaded!

WunderBlog® & News

Nearby

Air Quality

  Air Quality AQ Index Pollutant
Not available.

Snow Depth

Station Depth Elevation

Earthquake Activity

City Distance Mag. Time & Date
Minimum magnitude displayed is 2.5.

Coastal Water Temperatures

Place Temperature

Stations

Nearby Weather Stations

Station Location Temp. Windchill Dew Point Humidity Wind Precip. Elev Updated Type
                   

Watches & Warnings

There are currently no watches in effect.